sensor_id;sensor_type;location;lat;lon;timestamp;pressure;altitude;pressure_sealevel;temperature
65738;BMP280;52478;51.844;6.582;2023-04-25T00:02:00;100684.41;;;22.43
65738;BMP280;52478;51.844;6.582;2023-04-25T00:04:27;100680.34;;;22.44
65738;BMP280;52478;51.844;6.582;2023-04-25T00:06:55;100681.63;;;22.43
65738;BMP280;52478;51.844;6.582;2023-04-25T00:09:22;100678.09;;;22.42
65738;BMP280;52478;51.844;6.582;2023-04-25T00:11:49;100680.16;;;22.42
65738;BMP280;52478;51.844;6.582;2023-04-25T00:14:15;100680.16;;;22.42
65738;BMP280;52478;51.844;6.582;2023-04-25T00:16:42;100673.25;;;22.43
65738;BMP280;52478;51.844;6.582;2023-04-25T00:19:09;100670.28;;;22.41
65738;BMP280;52478;51.844;6.582;2023-04-25T00:21:36;100671.03;;;22.41
65738;BMP280;52478;51.844;6.582;2023-04-25T00:24:06;100671.78;;;22.42
65738;BMP280;52478;51.844;6.582;2023-04-25T00:26:34;100667.25;;;22.39
65738;BMP280;52478;51.844;6.582;2023-04-25T00:29:01;100671.78;;;22.42
65738;BMP280;52478;51.844;6.582;2023-04-25T00:31:27;100677.38;;;22.42
65738;BMP280;52478;51.844;6.582;2023-04-25T00:33:54;100674.59;;;22.42
65738;BMP280;52478;51.844;6.582;2023-04-25T00:36:21;100685.53;;;22.40
65738;BMP280;52478;51.844;6.582;2023-04-25T00:38:47;100678.66;;;22.41
65738;BMP280;52478;51.844;6.582;2023-04-25T00:41:14;100689.56;;;22.39
65738;BMP280;52478;51.844;6.582;2023-04-25T00:43:44;100693.13;;;22.39
65738;BMP280;52478;51.844;6.582;2023-04-25T00:46:11;100695.91;;;22.39
65738;BMP280;52478;51.844;6.582;2023-04-25T00:48:37;100691.09;;;22.40
65738;BMP280;52478;51.844;6.582;2023-04-25T00:51:03;100702.25;;;22.40
65738;BMP280;52478;51.844;6.582;2023-04-25T00:53:30;100705.78;;;22.40
65738;BMP280;52478;51.844;6.582;2023-04-25T00:55:58;100696.66;;;22.40
65738;BMP280;52478;51.844;6.582;2023-04-25T00:58:24;100697.41;;;22.40
65738;BMP280;52478;51.844;6.582;2023-04-25T01:00:52;100685.53;;;22.40
65738;BMP280;52478;51.844;6.582;2023-04-25T01:03:19;100691.09;;;22.40
65738;BMP280;52478;51.844;6.582;2023-04-25T01:05:46;100694.44;;;22.38
65738;BMP280;52478;51.844;6.582;2023-04-25T01:08:13;100703.50;;;22.39
65738;BMP280;52478;51.844;6.582;2023-04-25T01:10:40;100700.72;;;22.39
65738;BMP280;52478;51.844;6.582;2023-04-25T01:13:06;100707.06;;;22.39
65738;BMP280;52478;51.844;6.582;2023-04-25T01:15:33;100704.09;;;22.37
65738;BMP280;52478;51.844;6.582;2023-04-25T01:18:02;100713.19;;;22.38
65738;BMP280;52478;51.844;6.582;2023-04-25T01:20:29;100715.25;;;22.37
65738;BMP280;52478;51.844;6.582;2023-04-25T01:22:58;100710.41;;;22.38
65738;BMP280;52478;51.844;6.582;2023-04-25T01:25:24;100709.09;;;22.39
65738;BMP280;52478;51.844;6.582;2023-04-25T01:27:51;100700.53;;;22.37
65738;BMP280;52478;51.844;6.582;2023-04-25T01:30:18;100709.66;;;22.37
65738;BMP280;52478;51.844;6.582;2023-04-25T01:32:45;100706.88;;;22.37
65738;BMP280;52478;51.844;6.582;2023-04-25T01:35:12;100707.38;;;22.36
65738;BMP280;52478;51.844;6.582;2023-04-25T01:37:39;100714.47;;;22.37
65738;BMP280;52478;51.844;6.582;2023-04-25T01:40:08;100718.53;;;22.36
65738;BMP280;52478;51.844;6.582;2023-04-25T01:42:37;100724.13;;;22.36
65738;BMP280;52478;51.844;6.582;2023-04-25T01:45:05;100729.69;;;22.36
65738;BMP280;52478;51.844;6.582;2023-04-25T01:47:32;100730.44;;;22.36
65738;BMP280;52478;51.844;6.582;2023-04-25T01:50:00;100731.72;;;22.35
65738;BMP280;52478;51.844;6.582;2023-04-25T01:52:26;100738.81;;;22.36
65738;BMP280;52478;51.844;6.582;2023-04-25T01:54:53;100735.28;;;22.36
65738;BMP280;52478;51.844;6.582;2023-04-25T01:57:21;100740.09;;;22.35
65738;BMP280;52478;51.844;6.582;2023-04-25T01:59:48;100747.16;;;22.36
65738;BMP280;52478;51.844;6.582;2023-04-25T02:02:15;100744.94;;;22.35
65738;BMP280;52478;51.844;6.582;2023-04-25T02:04:42;100748.47;;;22.35
65738;BMP280;52478;51.844;6.582;2023-04-25T02:07:08;100747.50;;;22.33
65738;BMP280;52478;51.844;6.582;2023-04-25T02:09:35;100738.63;;;22.34
65738;BMP280;52478;51.844;6.582;2023-04-25T02:12:01;100753.28;;;22.35
65738;BMP280;52478;51.844;6.582;2023-04-25T02:14:29;100750.50;;;22.35
65738;BMP280;52478;51.844;6.582;2023-04-25T02:16:56;100758.88;;;22.35
65738;BMP280;52478;51.844;6.582;2023-04-25T02:19:22;100755.34;;;22.34
65738;BMP280;52478;51.844;6.582;2023-04-25T02:21:49;100751.78;;;22.34
65738;BMP280;52478;51.844;6.582;2023-04-25T02:24:15;100765.75;;;22.34
65738;BMP280;52478;51.844;6.582;2023-04-25T02:26:41;100767.78;;;22.33
65738;BMP280;52478;51.844;6.582;2023-04-25T02:29:09;100764.22;;;22.33
65738;BMP280;52478;51.844;6.582;2023-04-25T02:31:37;100769.81;;;22.33
65738;BMP280;52478;51.844;6.582;2023-04-25T02:34:03;100770.56;;;22.33
65738;BMP280;52478;51.844;6.582;2023-04-25T02:36:30;100775.38;;;22.33
65738;BMP280;52478;51.844;6.582;2023-04-25T02:38:59;100768.31;;;22.32
65738;BMP280;52478;51.844;6.582;2023-04-25T02:41:26;100771.81;;;22.32
65738;BMP280;52478;51.844;6.582;2023-04-25T02:43:52;100786.53;;;22.33
65738;BMP280;52478;51.844;6.582;2023-04-25T02:46:19;100773.88;;;22.32
65738;BMP280;52478;51.844;6.582;2023-04-25T02:48:46;100779.47;;;22.32
65738;BMP280;52478;51.844;6.582;2023-04-25T02:51:13;100778.16;;;22.33
65738;BMP280;52478;51.844;6.582;2023-04-25T02:53:41;100780.97;;;22.33
65738;BMP280;52478;51.844;6.582;2023-04-25T02:56:08;100779.47;;;22.32
65738;BMP280;52478;51.844;6.582;2023-04-25T02:58:34;100775.19;;;22.31
65738;BMP280;52478;51.844;6.582;2023-04-25T03:01:01;100780.78;;;22.31
65738;BMP280;52478;51.844;6.582;2023-04-25T03:03:27;100772.41;;;22.31
65738;BMP280;52478;51.844;6.582;2023-04-25T03:05:55;100772.41;;;22.31
65738;BMP280;52478;51.844;6.582;2023-04-25T03:08:22;100771.63;;;22.30
65738;BMP280;52478;51.844;6.582;2023-04-25T03:10:50;100777.97;;;22.31
65738;BMP280;52478;51.844;6.582;2023-04-25T03:13:18;100777.22;;;22.30
65738;BMP280;52478;51.844;6.582;2023-04-25T03:15:45;100770.88;;;22.30
65738;BMP280;52478;51.844;6.582;2023-04-25T03:18:11;100786.34;;;22.31
65738;BMP280;52478;51.844;6.582;2023-04-25T03:20:38;100777.97;;;22.31
65738;BMP280;52478;51.844;6.582;2023-04-25T03:23:08;100782.03;;;22.30
65738;BMP280;52478;51.844;6.582;2023-04-25T03:25:34;100780.53;;;22.29
65738;BMP280;52478;51.844;6.582;2023-04-25T03:28:01;100777.72;;;22.29
65738;BMP280;52478;51.844;6.582;2023-04-25T03:30:27;100779.25;;;22.30
65738;BMP280;52478;51.844;6.582;2023-04-25T03:32:54;100777.22;;;22.30
65738;BMP280;52478;51.844;6.582;2023-04-25T03:35:20;100789.66;;;22.29
65738;BMP280;52478;51.844;6.582;2023-04-25T03:37:48;100780.00;;;22.30
65738;BMP280;52478;51.844;6.582;2023-04-25T03:40:16;100787.59;;;22.30
65738;BMP280;52478;51.844;6.582;2023-04-25T03:42:42;100783.31;;;22.29
65738;BMP280;52478;51.844;6.582;2023-04-25T03:45:09;100788.88;;;22.29
65738;BMP280;52478;51.844;6.582;2023-04-25T03:47:36;100785.34;;;22.28
65738;BMP280;52478;51.844;6.582;2023-04-25T03:50:03;100787.38;;;22.28
65738;BMP280;52478;51.844;6.582;2023-04-25T03:52:30;100790.94;;;22.28
65738;BMP280;52478;51.844;6.582;2023-04-25T03:54:56;100797.25;;;22.29
65738;BMP280;52478;51.844;6.582;2023-04-25T03:57:24;100794.47;;;22.29
65738;BMP280;52478;51.844;6.582;2023-04-25T03:59:50;100795.75;;;22.28
65738;BMP280;52478;51.844;6.582;2023-04-25T04:02:17;100802.81;;;22.29
65738;BMP280;52478;51.844;6.582;2023-04-25T04:04:44;100801.31;;;22.28
65738;BMP280;52478;51.844;6.582;2023-04-25T04:07:10;100797.56;;;22.26
65738;BMP280;52478;51.844;6.582;2023-04-25T04:09:37;100804.66;;;22.27
65738;BMP280;52478;51.844;6.582;2023-04-25T04:12:04;100809.69;;;22.28
65738;BMP280;52478;51.844;6.582;2023-04-25T04:14:31;100812.47;;;22.28
65738;BMP280;52478;51.844;6.582;2023-04-25T04:16:58;100820.84;;;22.28
65738;BMP280;52478;51.844;6.582;2023-04-25T04:19:25;100815.25;;;22.28
65738;BMP280;52478;51.844;6.582;2023-04-25T04:21:51;100820.66;;;22.26
65738;BMP280;52478;51.844;6.582;2023-04-25T04:24:18;100822.16;;;22.27
65738;BMP280;52478;51.844;6.582;2023-04-25T04:26:44;100820.66;;;22.26
65738;BMP280;52478;51.844;6.582;2023-04-25T04:29:11;100821.38;;;22.27
65738;BMP280;52478;51.844;6.582;2023-04-25T04:31:49;100822.16;;;22.27
65738;BMP280;52478;51.844;6.582;2023-04-25T04:34:16;100817.84;;;22.26
65738;BMP280;52478;51.844;6.582;2023-04-25T04:36:43;100822.16;;;22.27
65738;BMP280;52478;51.844;6.582;2023-04-25T04:39:10;100822.16;;;22.27
65738;BMP280;52478;51.844;6.582;2023-04-25T04:41:37;100825.47;;;22.26
65738;BMP280;52478;51.844;6.582;2023-04-25T04:44:03;100829.00;;;22.26
65738;BMP280;52478;51.844;6.582;2023-04-25T04:46:31;100831.81;;;22.26
65738;BMP280;52478;51.844;6.582;2023-04-25T04:49:04;100831.81;;;22.26
65738;BMP280;52478;51.844;6.582;2023-04-25T04:51:30;100844.47;;;22.27
65738;BMP280;52478;51.844;6.582;2023-04-25T04:53:58;100848.53;;;22.26
65738;BMP280;52478;51.844;6.582;2023-04-25T04:56:27;100847.00;;;22.25
